YCMH weather

Camden Haven Airport
New South Wales, Australia

Public forecast

Using degrees Celsius for public forecast. Weather courtesy of forecast.io.

Closest aviation weather report (METAR) to Camden Haven Airport

Report is more than 6 hours old.

Closest report is Port Macquarie Airport, 15.1 nm (27.9 km) NNE. Retrieved 2019/10/15 20:07 UTC (12 hours ago):

YPMQ 152007Z AUTO 31003KT 9999 // SCT002 16/16 Q1011

Closest aviation forecast (TAF) to Camden Haven Airport

Closest forecast is Taree Airport, 17.8 nm (32.9 km) SW. Retrieved 2019-10-16 02:33 UTC (6 hours ago):

TAF YTRE 160106Z 1602/1614 10010KT CAVOK FM160800 14005KT 9999 -SHRA FEW010 FM161000 22006KT 9999 -SHRA BKN005 PROB30 1611/1614 0500 FG BKN002